createdAt,value
2023-06-24T00:00:24.613Z,99138.94
2023-06-24T00:02:29.531Z,99142.50
2023-06-24T00:04:34.522Z,99147.78
2023-06-24T00:06:41.211Z,99139.03
2023-06-24T00:08:48.726Z,99147.78
2023-06-24T00:10:56.946Z,99141.59
2023-06-24T00:13:02.854Z,99139.03
2023-06-24T00:15:09.721Z,99133.75
2023-06-24T00:17:14.687Z,99137.22
2023-06-24T00:19:20.118Z,99136.50
2023-06-24T00:21:31.007Z,99137.63
2023-06-24T00:23:36.744Z,99135.56
2023-06-24T00:25:44.508Z,99132.50
2023-06-24T00:27:49.514Z,99132.81
2023-06-24T00:29:54.532Z,99127.59
2023-06-24T00:31:59.440Z,99127.91
2023-06-24T00:34:04.431Z,99131.56
2023-06-24T00:36:12.995Z,99130.16
2023-06-24T00:38:17.941Z,99138.69
2023-06-24T00:40:22.862Z,99140.88
2023-06-24T00:42:30.877Z,99129.47
2023-06-24T00:44:35.915Z,99126.09
2023-06-24T00:46:41.556Z,99126.81
2023-06-24T00:48:46.542Z,99117.78
2023-06-24T00:50:51.649Z,99120.97
2023-06-24T00:52:56.425Z,99115.97
2023-06-24T00:55:02.669Z,99112.59
2023-06-24T00:57:08.694Z,99119.28
2023-06-24T00:59:19.015Z,99109.28
2023-06-24T01:01:25.384Z,99117.97
2023-06-24T01:03:33.274Z,99109.09
2023-06-24T01:05:39.719Z,99112.88
2023-06-24T01:07:56.144Z,99117.69
2023-06-24T01:10:01.758Z,99122.63
2023-06-24T01:12:08.041Z,99120.53
2023-06-24T01:14:13.122Z,99118.91
2023-06-24T01:16:27.090Z,99123.25
2023-06-24T01:18:38.187Z,99121.47
2023-06-24T01:20:49.164Z,99122.06
2023-06-24T01:23:21.295Z,99114.91
2023-06-24T01:25:47.086Z,99110.47
2023-06-24T01:28:16.622Z,99112.19
2023-06-24T01:30:46.921Z,99106.72
2023-06-24T01:33:02.067Z,99114.16
2023-06-24T01:35:13.503Z,99112.91
2023-06-24T01:37:21.704Z,99112.03
2023-06-24T01:39:29.436Z,99112.16
2023-06-24T01:41:38.212Z,99111.38
2023-06-24T01:43:46.267Z,99115.03
2023-06-24T01:45:55.440Z,99102.88
2023-06-24T01:48:06.138Z,99096.69
2023-06-24T01:50:14.468Z,99098.31
2023-06-24T01:52:21.555Z,99098.31
2023-06-24T01:54:28.156Z,99095.69
2023-06-24T01:56:34.630Z,99093.03
2023-06-24T01:58:42.735Z,99094.13
2023-06-24T02:00:47.988Z,99091.44
2023-06-24T02:02:54.580Z,99092.94
2023-06-24T02:05:05.274Z,99089.38
2023-06-24T02:07:12.568Z,99092.09
2023-06-24T02:09:21.887Z,99082.41
2023-06-24T02:11:28.409Z,99084.19
2023-06-24T02:13:36.941Z,99074.59
2023-06-24T02:15:43.250Z,99077.25
2023-06-24T02:17:48.979Z,99083.88
2023-06-24T02:19:55.505Z,99086.94
2023-06-24T02:22:05.913Z,99090.53
2023-06-24T02:24:12.642Z,99085.53
2023-06-24T02:26:19.403Z,99088.00
2023-06-24T02:28:25.177Z,99080.75
2023-06-24T02:30:30.718Z,99076.25
2023-06-24T02:32:37.305Z,99074.72
2023-06-24T02:34:43.308Z,99079.63
2023-06-24T02:36:48.325Z,99075.31
2023-06-24T02:38:56.022Z,99076.16
2023-06-24T02:41:01.954Z,99082.91
2023-06-24T02:43:06.932Z,99092.06
2023-06-24T02:45:13.472Z,99101.25
2023-06-24T02:47:20.871Z,99097.25
2023-06-24T02:49:27.410Z,99105.78
2023-06-24T02:51:33.074Z,99105.84
2023-06-24T02:53:39.440Z,99100.59
2023-06-24T02:55:53.390Z,99108.13
2023-06-24T02:57:59.312Z,99104.41
2023-06-24T03:00:10.042Z,99100.41
2023-06-24T03:02:35.142Z,99096.16
2023-06-24T03:04:40.854Z,99102.53
2023-06-24T03:06:46.042Z,99108.88
2023-06-24T03:08:51.448Z,99118.50
2023-06-24T03:11:02.356Z,99119.16
2023-06-24T03:13:09.168Z,99116.38
2023-06-24T03:15:21.857Z,99117.03
2023-06-24T03:17:27.881Z,99110.25
2023-06-24T03:19:32.871Z,99118.16
2023-06-24T03:21:37.836Z,99126.28
2023-06-24T03:23:51.224Z,99130.69
2023-06-24T03:25:56.534Z,99142.16
2023-06-24T03:28:05.040Z,99138.09
2023-06-24T03:30:16.833Z,99144.75
2023-06-24T03:32:23.764Z,99148.13
2023-06-24T03:34:29.327Z,99157.00
2023-06-24T03:36:36.115Z,99163.66
2023-06-24T03:38:42.118Z,99163.50
2023-06-24T03:40:48.337Z,99160.81
2023-06-24T03:42:53.176Z,99160.88
2023-06-24T03:45:00.779Z,99169.53
2023-06-24T03:47:06.013Z,99174.72
2023-06-24T03:49:11.985Z,99173.69
2023-06-24T03:51:17.081Z,99176.03
2023-06-24T03:53:23.069Z,99186.38
2023-06-24T03:55:29.357Z,99188.88
2023-06-24T03:57:34.304Z,99185.47
2023-06-24T03:59:39.220Z,99191.75
2023-06-24T04:01:46.981Z,99185.53
2023-06-24T04:03:52.051Z,99192.25
2023-06-24T04:05:58.059Z,99187.63
2023-06-24T04:08:07.131Z,99191.59
2023-06-24T04:10:13.980Z,99192.22
2023-06-24T04:12:18.914Z,99190.44
2023-06-24T04:14:25.302Z,99193.31
2023-06-24T04:16:30.394Z,99195.69
2023-06-24T04:18:40.811Z,99196.97
2023-06-24T04:20:45.765Z,99198.44
2023-06-24T04:22:51.646Z,99197.69
2023-06-24T04:24:56.561Z,99205.31
2023-06-24T04:27:02.720Z,99208.44
2023-06-24T04:29:10.461Z,99209.91
2023-06-24T04:31:16.445Z,99207.88
2023-06-24T04:33:21.245Z,99209.44
2023-06-24T04:35:29.016Z,99206.44
2023-06-24T04:37:34.034Z,99204.50
2023-06-24T04:39:39.890Z,99206.84
2023-06-24T04:41:46.303Z,99204.94
2023-06-24T04:43:51.205Z,99213.75
2023-06-24T04:45:56.393Z,99206.53
2023-06-24T04:48:01.072Z,99213.50
2023-06-24T04:50:08.967Z,99212.38
2023-06-24T04:52:17.043Z,99210.28
2023-06-24T04:54:21.981Z,99212.59
2023-06-24T04:56:27.189Z,99211.41
2023-06-24T04:58:32.231Z,99215.38
2023-06-24T05:00:37.149Z,99217.34
2023-06-24T05:02:42.146Z,99217.22
2023-06-24T05:04:47.265Z,99222.50
2023-06-24T05:06:52.295Z,99224.94
2023-06-24T05:08:59.834Z,99224.47
2023-06-24T05:11:04.766Z,99231.06
2023-06-24T05:13:09.698Z,99223.63
2023-06-24T05:15:15.035Z,99217.28
2023-06-24T05:17:20.084Z,99218.69
2023-06-24T05:19:25.061Z,99211.47
2023-06-24T05:21:29.979Z,99206.84
2023-06-24T05:23:34.982Z,99206.59
2023-06-24T05:25:42.478Z,99201.97
2023-06-24T05:27:47.436Z,99195.56
2023-06-24T05:29:52.427Z,99199.34
2023-06-24T05:31:57.358Z,99201.91
2023-06-24T05:34:02.317Z,99196.25
2023-06-24T05:36:07.677Z,99199.19
2023-06-24T05:38:12.589Z,99192.28
2023-06-24T05:40:17.513Z,99189.06
2023-06-24T05:42:27.152Z,99196.22
2023-06-24T05:44:32.551Z,99189.81
2023-06-24T05:46:37.814Z,99188.41
2023-06-24T05:48:43.507Z,99192.06
2023-06-24T05:50:48.413Z,99196.22
2023-06-24T05:52:53.372Z,99201.13
2023-06-24T05:54:58.283Z,99195.28
2023-06-24T05:57:07.302Z,99198.28
2023-06-24T05:59:14.837Z,99200.28
2023-06-24T06:01:19.837Z,99186.56
2023-06-24T06:03:25.926Z,99185.91
2023-06-24T06:05:30.934Z,99187.94
2023-06-24T06:07:36.205Z,99183.06
2023-06-24T06:09:41.211Z,99182.84
2023-06-24T06:11:46.108Z,99176.34
2023-06-24T06:13:51.149Z,99179.53
2023-06-24T06:15:58.403Z,99183.59
2023-06-24T06:18:03.459Z,99177.16
2023-06-24T06:20:08.914Z,99173.97
2023-06-24T06:22:13.850Z,99172.44
2023-06-24T06:24:18.779Z,99164.44
2023-06-24T06:26:23.726Z,99166.28
2023-06-24T06:28:28.665Z,99163.75
2023-06-24T06:30:33.723Z,99160.72
2023-06-24T06:32:41.147Z,99160.28
2023-06-24T06:34:46.088Z,99154.91
2023-06-24T06:36:50.855Z,99159.88
2023-06-24T06:38:56.910Z,99168.25
2023-06-24T06:41:01.793Z,99164.94
2023-06-24T06:43:06.698Z,99166.00
2023-06-24T06:45:12.284Z,99163.81
2023-06-24T06:47:17.215Z,99164.03
2023-06-24T06:49:24.792Z,99162.25
2023-06-24T06:51:29.805Z,99158.66
2023-06-24T06:53:34.533Z,99160.56
2023-06-24T06:55:40.996Z,99161.31
2023-06-24T06:57:45.911Z,99160.88
2023-06-24T06:59:52.171Z,99156.00
2023-06-24T07:01:57.080Z,99158.44
2023-06-24T07:04:02.132Z,99158.53
2023-06-24T07:06:09.852Z,99146.31
2023-06-24T07:08:14.907Z,99149.03
2023-06-24T07:10:19.737Z,99147.88
2023-06-24T07:12:24.893Z,99141.81
2023-06-24T07:14:29.894Z,99144.31
2023-06-24T07:16:35.384Z,99143.97
2023-06-24T07:18:42.829Z,99143.00
2023-06-24T07:20:47.881Z,99135.44
2023-06-24T07:22:55.140Z,99130.28
2023-06-24T07:25:00.166Z,99134.97
2023-06-24T07:27:04.859Z,99134.56
2023-06-24T07:29:11.011Z,99123.72
2023-06-24T07:31:16.007Z,99120.50
2023-06-24T07:33:21.329Z,99126.13
2023-06-24T07:35:26.371Z,99114.59
2023-06-24T07:37:31.267Z,99119.94
2023-06-24T07:39:38.913Z,99114.06
2023-06-24T07:41:43.901Z,99114.66
2023-06-24T07:43:48.833Z,99113.44
2023-06-24T07:45:53.762Z,99115.81
2023-06-24T07:47:58.691Z,99116.44
2023-06-24T07:50:03.602Z,99117.63
2023-06-24T07:52:08.717Z,99113.41
2023-06-24T07:54:13.633Z,99102.78
2023-06-24T07:56:21.649Z,99111.72
2023-06-24T07:58:26.677Z,99117.41
2023-06-24T08:00:31.374Z,99121.09
2023-06-24T08:02:36.395Z,99121.09
2023-06-24T08:04:41.219Z,99115.69
2023-06-24T08:06:46.387Z,99116.69
2023-06-24T08:08:51.488Z,99113.78
2023-06-24T08:10:56.582Z,99121.75
2023-06-24T08:13:03.857Z,99115.97
2023-06-24T08:15:10.080Z,99119.34
2023-06-24T08:17:15.063Z,99116.94
2023-06-24T08:19:19.705Z,99118.50
2023-06-24T08:21:24.655Z,99110.03
2023-06-24T08:23:29.317Z,99119.47
2023-06-24T08:25:34.786Z,99124.78
2023-06-24T08:27:39.992Z,99117.66
2023-06-24T08:29:48.070Z,99116.81
2023-06-24T08:31:52.968Z,99114.63
2023-06-24T08:33:58.073Z,99113.06
2023-06-24T08:36:03.695Z,99108.59
2023-06-24T08:38:08.643Z,99105.91
2023-06-24T08:40:13.842Z,99103.16
2023-06-24T08:42:18.872Z,99113.19
2023-06-24T08:44:23.510Z,99110.88
2023-06-24T08:46:32.353Z,99112.69
2023-06-24T08:48:41.759Z,99105.66
2023-06-24T08:50:50.068Z,99109.53
2023-06-24T08:52:55.952Z,99113.72
2023-06-24T08:55:03.120Z,99106.16
2023-06-24T08:57:09.797Z,99107.97
2023-06-24T08:59:14.846Z,99107.72
2023-06-24T09:01:22.387Z,99113.63
2023-06-24T09:03:31.556Z,99110.06
2023-06-24T09:05:36.694Z,99113.53
2023-06-24T09:07:42.322Z,99112.03
2023-06-24T09:09:48.635Z,99105.59
2023-06-24T09:11:58.370Z,99107.31
2023-06-24T09:14:04.324Z,99101.56
2023-06-24T09:16:18.767Z,99096.72
2023-06-24T09:18:23.700Z,99097.56
2023-06-24T09:20:31.477Z,99101.63
2023-06-24T09:22:36.402Z,99097.94
2023-06-24T09:24:41.733Z,99086.69
2023-06-24T09:26:47.525Z,99088.00
2023-06-24T09:28:53.122Z,99087.25
2023-06-24T09:31:18.949Z,99087.41
2023-06-24T09:33:28.298Z,99086.25
2023-06-24T09:35:39.427Z,99085.16
2023-06-24T09:37:46.587Z,99088.84
2023-06-24T09:39:51.704Z,99088.31
2023-06-24T09:41:56.425Z,99081.91
2023-06-24T09:44:02.340Z,99084.13
2023-06-24T09:46:07.908Z,99075.16
2023-06-24T09:48:12.863Z,99079.84
2023-06-24T09:50:17.668Z,99083.16
2023-06-24T09:52:27.723Z,99077.94
2023-06-24T09:54:34.774Z,99077.94
2023-06-24T09:56:41.128Z,99079.06
2023-06-24T09:58:48.236Z,99078.66
2023-06-24T10:00:53.695Z,99066.91
2023-06-24T10:03:01.140Z,99065.34
2023-06-24T10:05:07.567Z,99061.78
2023-06-24T10:07:12.720Z,99066.72
2023-06-24T10:09:20.845Z,99060.19
2023-06-24T10:11:26.409Z,99054.59
2023-06-24T10:13:31.491Z,99062.34
2023-06-24T10:15:36.806Z,99054.00
2023-06-24T10:17:42.049Z,99050.63
2023-06-24T10:19:48.651Z,99056.97
2023-06-24T10:21:55.845Z,99050.13
2023-06-24T10:24:00.796Z,99048.81
2023-06-24T10:26:11.259Z,99043.47
2023-06-24T10:28:16.246Z,99036.22
2023-06-24T10:30:21.596Z,99035.53
2023-06-24T10:32:27.266Z,99032.34
2023-06-24T10:34:34.995Z,99022.16
2023-06-24T10:36:41.903Z,99022.16
2023-06-24T10:38:59.469Z,99019.63
2023-06-24T10:41:24.098Z,99020.88
2023-06-24T10:43:33.376Z,99015.53
2023-06-24T10:45:39.664Z,99017.78
2023-06-24T10:47:45.910Z,99010.50
2023-06-24T10:49:50.902Z,99010.88
2023-06-24T10:51:55.583Z,99003.91
2023-06-24T10:54:00.646Z,99003.75
2023-06-24T10:56:05.772Z,99005.53
2023-06-24T10:58:18.036Z,99006.84
2023-06-24T11:00:25.182Z,98995.31
2023-06-24T11:02:31.244Z,98996.59
2023-06-24T11:04:36.356Z,98999.25
2023-06-24T11:06:41.805Z,98984.97
2023-06-24T11:08:49.620Z,98990.44
2023-06-24T11:10:54.550Z,98982.31
2023-06-24T11:12:59.791Z,98977.38
2023-06-24T11:15:08.871Z,98980.75
2023-06-24T11:17:13.920Z,98985.41
2023-06-24T11:19:18.959Z,98985.66
2023-06-24T11:21:23.752Z,98978.81
2023-06-24T11:23:29.389Z,98976.56
2023-06-24T11:25:34.330Z,98971.78
2023-06-24T11:27:39.687Z,98975.84
2023-06-24T11:29:48.750Z,98968.97
2023-06-24T11:31:56.402Z,98960.22
2023-06-24T11:34:01.755Z,98957.56
2023-06-24T11:36:13.243Z,98963.03
2023-06-24T11:38:18.214Z,98963.31
2023-06-24T11:40:24.092Z,98959.34
2023-06-24T11:42:29.029Z,98959.81
2023-06-24T11:44:35.208Z,98961.63
2023-06-24T11:46:42.290Z,98958.25
2023-06-24T11:48:49.769Z,98951.53
2023-06-24T11:50:57.518Z,98952.09
2023-06-24T11:53:03.070Z,98953.78
2023-06-24T11:55:14.874Z,98948.03
2023-06-24T11:57:19.883Z,98952.34
2023-06-24T11:59:26.581Z,98955.31
2023-06-24T12:01:34.555Z,98948.59
2023-06-24T12:03:39.576Z,98940.44
2023-06-24T12:05:51.624Z,98933.38
2023-06-24T12:07:59.593Z,98934.50
2023-06-24T12:10:04.574Z,98936.16
2023-06-24T12:12:10.092Z,98931.88
2023-06-24T12:14:15.506Z,98935.69
2023-06-24T12:16:20.480Z,98930.75
2023-06-24T12:18:25.099Z,98929.97
2023-06-24T12:20:31.925Z,98933.22
2023-06-24T12:22:44.276Z,98935.63
2023-06-24T12:24:49.206Z,98932.59
2023-06-24T12:26:53.898Z,98919.84
2023-06-24T12:28:59.915Z,98918.97
2023-06-24T12:31:04.849Z,98917.75
2023-06-24T12:33:10.308Z,98912.78
2023-06-24T12:35:15.365Z,98919.84
2023-06-24T12:37:20.335Z,98919.66
2023-06-24T12:39:27.963Z,98918.09
2023-06-24T12:41:33.301Z,98909.59
2023-06-24T12:43:38.234Z,98912.94
2023-06-24T12:45:44.620Z,98901.25
2023-06-24T12:47:51.414Z,98904.03
2023-06-24T12:49:56.872Z,98904.59
2023-06-24T12:52:01.893Z,98901.59
2023-06-24T12:54:06.804Z,98899.63
2023-06-24T12:56:14.379Z,98893.16
2023-06-24T12:58:23.652Z,98895.44
2023-06-24T13:00:28.660Z,98892.13
2023-06-24T13:02:33.663Z,98892.91
2023-06-24T13:04:38.648Z,98886.78
2023-06-24T13:06:43.816Z,98893.41
2023-06-24T13:08:48.796Z,98885.34
2023-06-24T13:10:53.853Z,98889.50
2023-06-24T13:13:02.327Z,98887.41
2023-06-24T13:15:08.207Z,98887.09
2023-06-24T13:17:13.110Z,98888.50
2023-06-24T13:19:18.713Z,98882.63
2023-06-24T13:21:26.140Z,98880.38
2023-06-24T13:23:31.068Z,98880.00
2023-06-24T13:25:36.148Z,98878.44
2023-06-24T13:27:41.457Z,98874.19
2023-06-24T13:29:49.122Z,98869.59
2023-06-24T13:31:54.076Z,98866.41
2023-06-24T13:33:58.996Z,98869.31
2023-06-24T13:36:03.935Z,98872.19
2023-06-24T13:38:09.042Z,98865.78
2023-06-24T13:40:14.697Z,98864.13
2023-06-24T13:42:19.714Z,98866.13
2023-06-24T13:44:24.799Z,98863.44
2023-06-24T13:46:33.416Z,98869.97
2023-06-24T13:48:38.468Z,98870.34
2023-06-24T13:50:43.344Z,98875.53
2023-06-24T13:52:48.047Z,98863.75
2023-06-24T13:54:53.047Z,98866.72
2023-06-24T13:56:58.005Z,98862.66
2023-06-24T13:59:02.659Z,98865.38
2023-06-24T14:01:07.679Z,98859.50
2023-06-24T14:03:15.279Z,98862.13
2023-06-24T14:05:20.701Z,98859.31
2023-06-24T14:07:26.405Z,98845.34
2023-06-24T14:09:31.774Z,98841.53
2023-06-24T14:11:36.666Z,98845.22
2023-06-24T14:13:41.971Z,98845.91
2023-06-24T14:15:46.883Z,98844.88
2023-06-24T14:17:51.549Z,98845.56
2023-06-24T14:19:59.176Z,98841.22
2023-06-24T14:22:04.256Z,98846.06
2023-06-24T14:24:16.571Z,98839.84
2023-06-24T14:26:22.297Z,98833.44
2023-06-24T14:28:27.308Z,98827.97
2023-06-24T14:30:32.386Z,98831.41
2023-06-24T14:32:39.388Z,98829.66
2023-06-24T14:34:45.978Z,98827.44
2023-06-24T14:36:53.789Z,98828.38
2023-06-24T14:38:58.818Z,98825.75
2023-06-24T14:41:03.788Z,98826.53
2023-06-24T14:43:08.718Z,98821.69
2023-06-24T14:45:14.000Z,98816.44
2023-06-24T14:47:19.011Z,98822.50
2023-06-24T14:49:27.166Z,98813.91
2023-06-24T14:51:32.229Z,98807.31
2023-06-24T14:53:39.914Z,98806.41
2023-06-24T14:55:45.982Z,98812.38
2023-06-24T14:57:50.954Z,98810.41
2023-06-24T14:59:55.999Z,98808.41
2023-06-24T15:02:01.086Z,98804.84
2023-06-24T15:04:06.112Z,98801.91
2023-06-24T15:06:11.195Z,98801.13
2023-06-24T15:08:16.245Z,98802.84
2023-06-24T15:10:25.933Z,98802.75
2023-06-24T15:12:30.853Z,98799.03
2023-06-24T15:14:35.810Z,98794.53
2023-06-24T15:16:40.704Z,98788.13
2023-06-24T15:18:51.260Z,98796.75
2023-06-24T15:20:57.858Z,98789.44
2023-06-24T15:23:02.882Z,98782.75
2023-06-24T15:25:10.743Z,98782.34
2023-06-24T15:27:18.421Z,98780.22
2023-06-24T15:29:26.230Z,98777.69
2023-06-24T15:31:31.360Z,98770.28
2023-06-24T15:33:36.319Z,98773.50
2023-06-24T15:35:41.329Z,98766.06
2023-06-24T15:37:46.270Z,98771.81
2023-06-24T15:39:51.244Z,98766.38
2023-06-24T15:41:56.213Z,98761.16
2023-06-24T15:44:03.729Z,98770.44
2023-06-24T15:46:08.752Z,98769.44
2023-06-24T15:48:13.848Z,98763.47
2023-06-24T15:50:19.087Z,98767.56
2023-06-24T15:52:24.282Z,98760.91
2023-06-24T15:54:29.274Z,98762.78
2023-06-24T15:56:34.251Z,98760.03
2023-06-24T15:58:39.228Z,98759.66
2023-06-24T16:00:46.926Z,98757.19
2023-06-24T16:02:51.969Z,98764.22
2023-06-24T16:04:57.018Z,98760.25
2023-06-24T16:07:02.125Z,98758.06
2023-06-24T16:09:07.740Z,98754.38
2023-06-24T16:11:12.740Z,98761.97
2023-06-24T16:13:17.677Z,98752.91
2023-06-24T16:15:22.629Z,98743.59
2023-06-24T16:17:30.179Z,98740.47
2023-06-24T16:19:35.180Z,98746.75
2023-06-24T16:21:40.067Z,98747.41
2023-06-24T16:23:48.380Z,98742.47
2023-06-24T16:25:53.459Z,98747.53
2023-06-24T16:27:58.351Z,98740.66
2023-06-24T16:30:03.345Z,98742.22
2023-06-24T16:32:08.685Z,98734.22
2023-06-24T16:34:23.745Z,98731.13
2023-06-24T16:36:29.494Z,98735.03
2023-06-24T16:38:34.430Z,98729.56
2023-06-24T16:40:39.353Z,98727.66
2023-06-24T16:42:46.164Z,98725.94
2023-06-24T16:44:52.640Z,98724.94
2023-06-24T16:46:57.602Z,98738.34
2023-06-24T16:49:07.835Z,98733.84
2023-06-24T16:51:16.179Z,98734.84
2023-06-24T16:53:21.088Z,98728.63
2023-06-24T16:55:26.194Z,98728.97
2023-06-24T16:57:31.178Z,98723.75
2023-06-24T16:59:37.023Z,98723.41
2023-06-24T17:01:41.981Z,98725.94
2023-06-24T17:03:47.178Z,98725.06
2023-06-24T17:05:52.161Z,98724.75
2023-06-24T17:07:59.830Z,98726.19
2023-06-24T17:10:04.832Z,98732.50
2023-06-24T17:12:10.140Z,98732.28
2023-06-24T17:14:15.073Z,98722.91
2023-06-24T17:17:14.403Z,98728.69
2023-06-24T17:18:59.092Z,98730.19
2023-06-24T17:21:04.053Z,98717.19
2023-06-24T17:23:11.575Z,98725.72
2023-06-24T17:25:16.840Z,98725.34
2023-06-24T17:27:21.836Z,98728.81
2023-06-24T17:29:26.526Z,98727.28
2023-06-24T17:31:31.518Z,98733.13
2023-06-24T17:33:36.540Z,98727.09
2023-06-24T17:35:41.217Z,98732.25
2023-06-24T17:37:46.125Z,98730.00
2023-06-24T17:39:53.390Z,98727.63
2023-06-24T17:41:58.268Z,98726.75
2023-06-24T17:44:03.021Z,98728.78
2023-06-24T17:46:08.041Z,98729.59
2023-06-24T17:48:13.009Z,98725.72
2023-06-24T17:50:18.116Z,98721.75
2023-06-24T17:52:22.822Z,98734.53
2023-06-24T17:54:27.983Z,98730.19
2023-06-24T17:56:35.508Z,98729.50
2023-06-24T17:58:40.525Z,98723.94
2023-06-24T18:00:45.291Z,98726.16
2023-06-24T18:02:50.379Z,98719.38
2023-06-24T18:04:55.354Z,98724.88
2023-06-24T18:07:00.450Z,98719.84
2023-06-24T18:09:05.537Z,98723.81
2023-06-24T18:11:10.442Z,98716.50
2023-06-24T18:13:18.062Z,98719.00
2023-06-24T18:15:26.274Z,98716.59
2023-06-24T18:17:31.175Z,98721.06
2023-06-24T18:19:36.804Z,98714.44
2023-06-24T18:21:44.111Z,98717.56
2023-06-24T18:23:49.072Z,98718.56
2023-06-24T18:25:53.727Z,98725.03
2023-06-24T18:27:58.751Z,98720.84
2023-06-24T18:30:06.077Z,98720.97
2023-06-24T18:32:11.511Z,98721.16
2023-06-24T18:34:16.654Z,98712.44
2023-06-24T18:36:21.381Z,98718.41
2023-06-24T18:38:26.347Z,98710.88
2023-06-24T18:40:31.348Z,98721.69
2023-06-24T18:42:36.040Z,98715.13
2023-06-24T18:44:41.069Z,98716.13
2023-06-24T18:46:48.321Z,98717.03
2023-06-24T18:48:53.042Z,98716.16
2023-06-24T18:50:57.679Z,98715.81
2023-06-24T18:53:02.440Z,98719.63
2023-06-24T18:55:07.189Z,98724.94
2023-06-24T18:57:11.921Z,98715.81
2023-06-24T18:59:18.463Z,98720.16
2023-06-24T19:01:23.163Z,98715.81
2023-06-24T19:03:30.560Z,98715.41
2023-06-24T19:05:37.382Z,98716.28
2023-06-24T19:07:42.086Z,98718.66
2023-06-24T19:09:46.724Z,98715.47
2023-06-24T19:11:51.389Z,98717.13
2023-06-24T19:13:56.056Z,98715.47
2023-06-24T19:16:00.923Z,98721.91
2023-06-24T19:18:05.735Z,98721.22
2023-06-24T19:20:14.476Z,98717.19
2023-06-24T19:22:21.626Z,98711.47
2023-06-24T19:24:26.282Z,98711.75
2023-06-24T19:26:31.062Z,98716.69
2023-06-24T19:28:35.708Z,98721.78
2023-06-24T19:30:40.721Z,98714.09
2023-06-24T19:32:45.816Z,98716.19
2023-06-24T19:34:50.499Z,98711.13
2023-06-24T19:36:58.001Z,98714.28
2023-06-24T19:39:02.672Z,98722.69
2023-06-24T19:41:07.404Z,98719.47
2023-06-24T19:43:12.108Z,98714.44
2023-06-24T19:45:16.980Z,98722.88
2023-06-24T19:47:21.781Z,98720.47
2023-06-24T19:49:26.505Z,98715.72
2023-06-24T19:51:31.629Z,98723.88
2023-06-24T19:53:38.923Z,98714.47
2023-06-24T19:55:43.693Z,98724.47
2023-06-24T19:57:48.471Z,98717.59
2023-06-24T19:59:53.247Z,98725.72
2023-06-24T20:01:57.997Z,98717.19
2023-06-24T20:04:02.751Z,98717.47
2023-06-24T20:06:07.573Z,98716.75
2023-06-24T20:08:12.421Z,98716.06
2023-06-24T20:10:19.818Z,98723.38
2023-06-24T20:12:24.578Z,98721.97
2023-06-24T20:14:29.280Z,98718.75
2023-06-24T20:16:34.043Z,98723.53
2023-06-24T20:18:38.814Z,98722.41
2023-06-24T20:20:43.571Z,98725.50
2023-06-24T20:22:48.243Z,98722.28
2023-06-24T20:24:53.015Z,98724.25
2023-06-24T20:27:00.375Z,98723.69
2023-06-24T20:29:05.097Z,98723.00
2023-06-24T20:31:09.812Z,98719.78
2023-06-24T20:33:14.577Z,98717.38
2023-06-24T20:35:20.600Z,98718.63
2023-06-24T20:37:25.272Z,98716.53
2023-06-24T20:39:30.468Z,98723.53
2023-06-24T20:41:35.416Z,98718.22
2023-06-24T20:43:42.823Z,98718.19
2023-06-24T20:45:47.461Z,98722.25
2023-06-24T20:47:52.225Z,98723.38
2023-06-24T20:49:57.003Z,98725.03
2023-06-24T20:52:02.030Z,98722.38
2023-06-24T20:54:06.750Z,98719.00
2023-06-24T20:56:11.661Z,98713.69
2023-06-24T20:58:16.382Z,98720.47
2023-06-24T21:00:25.859Z,98727.50
2023-06-24T21:02:33.847Z,98722.41
2023-06-24T21:04:39.048Z,98726.91
2023-06-24T21:06:43.734Z,98729.00
2023-06-24T21:08:48.512Z,98718.91
2023-06-24T21:10:53.233Z,98724.75
2023-06-24T21:12:59.118Z,98721.53
2023-06-24T21:15:06.472Z,98724.31
2023-06-24T21:17:15.584Z,98718.44
2023-06-24T21:19:23.104Z,98729.88
2023-06-24T21:21:27.825Z,98726.91
2023-06-24T21:23:32.541Z,98726.13
2023-06-24T21:25:37.220Z,98728.09
2023-06-24T21:27:44.196Z,98727.78
2023-06-24T21:29:48.968Z,98728.03
2023-06-24T21:31:53.667Z,98738.31
2023-06-24T21:34:02.367Z,98738.31
2023-06-24T21:36:09.328Z,98741.13
2023-06-24T21:38:14.075Z,98742.22
2023-06-24T21:40:18.842Z,98736.31
2023-06-24T21:42:24.637Z,98741.03
2023-06-24T21:44:29.373Z,98738.66
2023-06-24T21:46:34.154Z,98748.53
2023-06-24T21:48:39.037Z,98744.09
2023-06-24T21:50:46.420Z,98740.72
2023-06-24T21:52:51.093Z,98741.81
2023-06-24T21:54:55.794Z,98738.34
2023-06-24T21:57:00.473Z,98744.59
2023-06-24T21:59:05.165Z,98741.25
2023-06-24T22:01:12.228Z,98742.34
2023-06-24T22:03:20.187Z,98746.34
2023-06-24T22:05:34.741Z,98742.28
2023-06-24T22:07:43.522Z,98742.66
2023-06-24T22:09:48.243Z,98741.94
2023-06-24T22:11:55.703Z,98739.81
2023-06-24T22:14:02.835Z,98739.59
2023-06-24T22:16:13.322Z,98738.53
2023-06-24T22:18:33.154Z,98738.78
2023-06-24T22:20:41.313Z,98738.63
2023-06-24T22:22:59.260Z,98740.19
2023-06-24T22:25:04.111Z,98742.84
2023-06-24T22:27:11.144Z,98747.28
2023-06-24T22:29:20.750Z,98737.81
2023-06-24T22:31:28.376Z,98744.06
2023-06-24T22:33:33.023Z,98739.00
2023-06-24T22:35:37.726Z,98740.09
2023-06-24T22:37:42.446Z,98740.72
2023-06-24T22:39:49.776Z,98743.47
2023-06-24T22:41:54.427Z,98743.88
2023-06-24T22:43:59.236Z,98744.81
2023-06-24T22:46:04.417Z,98744.22
2023-06-24T22:48:09.542Z,98751.34
2023-06-24T22:50:14.238Z,98746.28
2023-06-24T22:52:18.994Z,98753.75
2023-06-24T22:54:24.279Z,98750.63
2023-06-24T22:56:31.640Z,98749.91
2023-06-24T22:58:36.289Z,98746.41
2023-06-24T23:00:40.992Z,98751.59
2023-06-24T23:02:46.057Z,98743.66
2023-06-24T23:04:51.057Z,98743.50
2023-06-24T23:06:56.083Z,98738.22
2023-06-24T23:09:01.133Z,98744.47
2023-06-24T23:11:06.396Z,98743.41
2023-06-24T23:13:14.340Z,98750.47
2023-06-24T23:15:19.607Z,98745.06
2023-06-24T23:17:24.412Z,98741.44
2023-06-24T23:19:30.548Z,98744.47
2023-06-24T23:21:35.723Z,98739.16
2023-06-24T23:23:40.757Z,98748.19
2023-06-24T23:25:45.503Z,98740.47
2023-06-24T23:27:51.659Z,98743.84
2023-06-24T23:30:00.284Z,98743.22
2023-06-24T23:32:05.118Z,98740.22
2023-06-24T23:34:10.831Z,98743.81
2023-06-24T23:36:15.826Z,98743.69
2023-06-24T23:38:21.486Z,98744.06
2023-06-24T23:40:26.508Z,98737.44
2023-06-24T23:42:33.024Z,98744.72
2023-06-24T23:44:38.173Z,98748.34
2023-06-24T23:46:45.533Z,98746.66
2023-06-24T23:48:50.261Z,98739.66
2023-06-24T23:50:54.899Z,98736.31
2023-06-24T23:53:00.981Z,98740.13
2023-06-24T23:55:06.320Z,98741.22
2023-06-24T23:57:11.016Z,98737.72
2023-06-24T23:59:15.706Z,98735.31
